Time;durP1;ratioP1;P1;durP2;ratioP2;P2;SDS_P1;SDS_P2;PMS_P1;PMS_P2;Temp;Humidity;BMP_temperature;BMP_pressure;BME280_temperature;BME280_humidity;BME280_pressure;Samples;Min_cycle;Max_cycle;Signal;HPM_P1;HPM_P2
2022/04/29 00:00:59;;;;;;;14.52;9.05;;;9.20;91.40;;;;;;5071315;28;20028;-41
2022/04/29 00:03:25;;;;;;;13.07;8.27;;;9.20;91.50;;;;;;5071116;28;20021;-41
2022/04/29 00:05:53;;;;;;;19.25;9.27;;;9.20;91.70;;;;;;5071123;28;20042;-48
2022/04/29 00:08:19;;;;;;;17.35;9.23;;;9.20;91.30;;;;;;5071087;28;20112;-59
2022/04/29 00:10:44;;;;;;;18.90;8.93;;;9.20;91.70;;;;;;5071036;28;20115;-55
2022/04/29 00:13:13;;;;;;;17.23;8.73;;;9.20;91.00;;;;;;5071241;28;20050;-51
2022/04/29 00:15:39;;;;;;;16.55;9.05;;;9.20;91.20;;;;;;5071052;28;20055;-61
2022/04/29 00:18:05;;;;;;;16.55;9.40;;;9.20;90.90;;;;;;5071165;28;20443;-43
2022/04/29 00:20:30;;;;;;;16.88;9.40;;;9.20;91.20;;;;;;5070878;28;20170;-57
2022/04/29 00:22:56;;;;;;;14.93;9.65;;;9.20;91.80;;;;;;5070520;28;20238;-45
2022/04/29 00:25:22;;;;;;;13.80;9.23;;;9.20;91.70;;;;;;5070925;28;20033;-56
2022/04/29 00:27:48;;;;;;;17.35;9.10;;;9.20;91.60;;;;;;5070861;28;20029;-50
2022/04/29 00:30:13;;;;;;;13.57;8.35;;;9.20;91.70;;;;;;5071041;28;20117;-52
2022/04/29 00:32:40;;;;;;;17.23;9.63;;;9.10;91.50;;;;;;5070853;28;20112;-57
2022/04/29 00:35:08;;;;;;;13.95;8.50;;;9.10;91.20;;;;;;5070701;28;20083;-49
2022/04/29 00:37:43;;;;;;;15.38;9.25;;;9.10;91.40;;;;;;5070807;28;20109;-55
2022/04/29 00:40:15;;;;;;;17.38;9.05;;;9.10;91.20;;;;;;5070647;28;20027;-54
2022/04/29 00:42:41;;;;;;;17.02;9.00;;;9.10;91.40;;;;;;5070718;28;20044;-50
2022/04/29 00:45:08;;;;;;;16.77;9.20;;;9.00;90.90;;;;;;5070836;28;20028;-49
2022/04/29 00:47:33;;;;;;;18.33;9.32;;;9.00;91.40;;;;;;5070718;28;20070;-48
2022/04/29 00:49:59;;;;;;;13.32;8.60;;;9.00;91.20;;;;;;5073737;28;20443;-55
2022/04/29 00:52:25;;;;;;;24.50;9.02;;;9.00;91.50;;;;;;5074248;28;20024;-52
2022/04/29 00:54:57;;;;;;;11.75;8.68;;;9.00;91.10;;;;;;5074559;28;20024;-49
2022/04/29 00:57:28;;;;;;;15.43;9.13;;;9.10;91.10;;;;;;5074471;28;20036;-58
2022/04/29 01:00:05;;;;;;;19.77;9.02;;;9.10;91.80;;;;;;5074106;28;20028;-58
2022/04/29 01:02:32;;;;;;;12.93;8.70;;;9.00;92.30;;;;;;5074155;28;20526;-54
2022/04/29 01:05:06;;;;;;;15.18;8.32;;;9.00;92.30;;;;;;5074448;28;20059;-54
2022/04/29 01:07:34;;;;;;;17.15;9.02;;;9.00;92.40;;;;;;5074357;28;20025;-57
2022/04/29 01:10:00;;;;;;;13.98;8.95;;;8.90;92.10;;;;;;5074301;28;20548;-56
2022/04/29 01:12:27;;;;;;;15.77;8.50;;;8.90;92.50;;;;;;5074015;28;20445;-54
2022/04/29 01:14:54;;;;;;;15.98;9.23;;;9.00;92.70;;;;;;5074126;28;20032;-50
2022/04/29 01:17:20;;;;;;;13.35;8.23;;;9.00;92.50;;;;;;5073766;28;20036;-48
2022/04/29 01:19:46;;;;;;;17.55;8.88;;;9.00;92.40;;;;;;5074044;28;20040;-49
2022/04/29 01:22:12;;;;;;;15.77;8.88;;;9.00;92.20;;;;;;5073580;28;20044;-48
2022/04/29 01:24:38;;;;;;;16.95;8.50;;;9.00;92.20;;;;;;5073919;28;20107;-54
2022/04/29 01:27:11;;;;;;;15.18;8.63;;;9.00;91.90;;;;;;5073807;28;20206;-45
2022/04/29 01:29:50;;;;;;;12.35;8.15;;;9.00;92.10;;;;;;5073737;28;20036;-55
2022/04/29 01:32:16;;;;;;;;;;;9.00;92.10;;;;;;5074135;28;20487;-51
2022/04/29 01:34:42;;;;;;;14.18;7.50;;;9.00;92.20;;;;;;5073594;28;19904;-56
2022/04/29 01:37:07;;;;;;;17.83;8.35;;;9.00;92.40;;;;;;5073647;28;20399;-58
2022/04/29 01:39:33;;;;;;;11.95;7.45;;;8.90;92.20;;;;;;5073566;28;20028;-53
2022/04/29 01:41:59;;;;;;;14.68;8.13;;;9.00;92.70;;;;;;5072259;28;20079;-56
2022/04/29 01:44:24;;;;;;;19.88;9.02;;;8.90;92.50;;;;;;5073389;28;20116;-44
2022/04/29 01:46:50;;;;;;;17.30;8.48;;;8.90;92.70;;;;;;5073455;28;20130;-54
2022/04/29 01:49:16;;;;;;;14.85;7.93;;;8.90;92.60;;;;;;5073455;28;20020;-57
2022/04/29 01:51:42;;;;;;;14.30;8.10;;;8.90;92.80;;;;;;5073497;28;20024;-55
2022/04/29 01:54:11;;;;;;;15.38;8.07;;;8.90;92.60;;;;;;5073172;28;20025;-50
2022/04/29 01:56:38;;;;;;;16.55;8.35;;;8.90;92.70;;;;;;5072163;28;20048;-55
2022/04/29 01:59:05;;;;;;;14.70;8.35;;;8.90;92.40;;;;;;5073040;28;20025;-56
2022/04/29 02:01:30;;;;;;;13.55;7.75;;;8.90;92.30;;;;;;5073328;28;20028;-49
2022/04/29 02:03:58;;;;;;;15.15;8.07;;;8.90;92.00;;;;;;5073181;28;20407;-54
2022/04/29 02:06:24;;;;;;;15.52;8.50;;;8.90;92.30;;;;;;5072959;28;20060;-55
2022/04/29 02:08:50;;;;;;;15.98;8.18;;;8.90;92.20;;;;;;5073060;28;20510;-53
2022/04/29 02:11:17;;;;;;;14.52;7.40;;;8.90;92.20;;;;;;5073097;28;20411;-56
2022/04/29 02:13:45;;;;;;;16.17;7.95;;;8.90;92.30;;;;;;5073261;28;20073;-53
2022/04/29 02:16:11;;;;;;;14.70;7.88;;;8.90;92.20;;;;;;5072843;28;20043;-54
2022/04/29 02:18:36;;;;;;;14.50;8.38;;;8.80;92.20;;;;;;5072907;28;20437;-53
2022/04/29 02:21:02;;;;;;;16.42;8.18;;;8.80;92.50;;;;;;5072434;28;20188;-53
2022/04/29 02:23:28;;;;;;;13.38;8.02;;;8.70;92.40;;;;;;5072553;28;20041;-51
2022/04/29 02:25:55;;;;;;;14.70;7.32;;;8.70;92.20;;;;;;5072341;28;20039;-58
2022/04/29 02:28:21;;;;;;;14.50;8.00;;;8.60;92.40;;;;;;5072727;28;20103;-51
2022/04/29 02:30:47;;;;;;;14.75;7.88;;;8.60;92.60;;;;;;5072729;28;20020;-53
2022/04/29 02:33:13;;;;;;;11.27;8.00;;;8.50;92.70;;;;;;5072616;28;20040;-55
2022/04/29 02:35:38;;;;;;;12.10;7.55;;;8.40;92.80;;;;;;5072290;28;20025;-58
2022/04/29 02:38:04;;;;;;;14.73;7.45;;;8.40;92.90;;;;;;5072525;28;20476;-56
2022/04/29 02:40:30;;;;;;;18.33;8.27;;;8.40;93.00;;;;;;5072338;28;20017;-57
2022/04/29 02:42:55;;;;;;;13.10;7.90;;;8.30;93.10;;;;;;5072227;28;20090;-58
2022/04/29 02:45:21;;;;;;;15.32;7.50;;;8.20;93.50;;;;;;5072149;28;20029;-57
2022/04/29 02:47:47;;;;;;;16.52;7.70;;;8.20;93.20;;;;;;5072115;28;20032;-49
2022/04/29 02:50:12;;;;;;;16.98;7.75;;;8.20;93.20;;;;;;5072157;28;20071;-53
2022/04/29 02:52:38;;;;;;;13.80;6.75;;;8.20;93.30;;;;;;5072174;28;20091;-43
2022/04/29 02:55:04;;;;;;;15.68;7.90;;;8.10;93.30;;;;;;5071914;28;20037;-56
2022/04/29 02:57:30;;;;;;;12.40;7.63;;;8.00;93.20;;;;;;5072092;28;20466;-51
2022/04/29 02:59:56;;;;;;;11.77;6.45;;;8.00;93.40;;;;;;5072233;28;20028;-58
2022/04/29 03:02:21;;;;;;;10.70;6.82;;;7.90;93.20;;;;;;5072121;28;20119;-53
2022/04/29 03:04:47;;;;;;;17.02;7.82;;;7.90;93.30;;;;;;5072000;28;20028;-54
2022/04/29 03:07:12;;;;;;;12.73;6.80;;;7.90;93.40;;;;;;5071593;28;20437;-48
2022/04/29 03:09:38;;;;;;;14.15;7.30;;;7.80;93.30;;;;;;5071756;28;20024;-42
2022/04/29 03:12:04;;;;;;;11.15;7.07;;;7.80;93.40;;;;;;5071453;28;20020;-55
2022/04/29 03:14:30;;;;;;;13.27;6.85;;;7.70;93.30;;;;;;5071915;28;20033;-43
2022/04/29 03:16:55;;;;;;;20.55;8.05;;;7.70;93.30;;;;;;5071492;28;20382;-50
2022/04/29 03:19:21;;;;;;;13.80;7.38;;;7.70;93.40;;;;;;5071722;28;20028;-59
2022/04/29 03:21:47;;;;;;;12.40;7.22;;;7.70;93.50;;;;;;5071499;28;20048;-52
2022/04/29 03:24:12;;;;;;;12.80;6.78;;;7.70;93.60;;;;;;5071743;28;20031;-52
2022/04/29 03:26:40;;;;;;;13.43;7.20;;;7.60;93.70;;;;;;5070940;28;20380;-52
2022/04/29 03:29:06;;;;;;;13.00;7.20;;;7.60;93.70;;;;;;5071454;28;20369;-56
2022/04/29 03:31:32;;;;;;;12.32;6.68;;;7.60;93.70;;;;;;5071534;28;20103;-57
2022/04/29 03:33:57;;;;;;;9.90;6.03;;;7.60;93.70;;;;;;5071520;28;20094;-50
2022/04/29 03:36:23;;;;;;;15.25;7.22;;;7.60;93.60;;;;;;5071115;28;20039;-59
2022/04/29 03:38:49;;;;;;;12.02;6.75;;;7.50;93.50;;;;;;5071344;28;20024;-46
2022/04/29 03:41:14;;;;;;;12.15;7.28;;;7.50;93.60;;;;;;5071474;28;20523;-54
2022/04/29 03:43:40;;;;;;;10.75;6.88;;;7.40;93.60;;;;;;5071312;28;20437;-57
2022/04/29 03:46:06;;;;;;;13.50;6.57;;;7.40;93.60;;;;;;5070756;28;20379;-55
2022/04/29 03:51:16;;;;;;;15.60;7.70;;;7.40;93.70;;;;;;5071544;28;20031;-48
2022/04/29 03:56:39;;;;;;;15.50;7.57;;;7.30;93.80;;;;;;5102640;27;1398529;-49
2022/04/29 03:59:05;;;;;;;13.50;6.95;;;7.20;93.80;;;;;;5129243;28;20053;-58
2022/04/29 04:01:31;;;;;;;10.48;6.38;;;7.20;93.70;;;;;;5128882;27;20473;-43
2022/04/29 04:03:56;;;;;;;12.40;7.45;;;7.20;93.60;;;;;;5128866;27;20042;-54
2022/04/29 04:09:06;;;;;;;16.90;6.95;;;7.10;93.60;;;;;;5129028;28;20080;-51
2022/04/29 04:11:32;;;;;;;12.85;7.03;;;7.10;93.70;;;;;;5129026;28;20024;-49
2022/04/29 04:13:58;;;;;;;10.95;7.15;;;7.00;93.70;;;;;;5128896;27;20026;-58
2022/04/29 04:16:24;;;;;;;16.00;8.13;;;7.00;93.60;;;;;;5128880;28;20031;-52
2022/04/29 04:18:50;;;;;;;11.88;7.45;;;6.90;93.70;;;;;;5128847;28;20522;-52
2022/04/29 04:21:16;;;;;;;10.85;6.70;;;6.90;93.70;;;;;;5128448;27;20141;-41
2022/04/29 04:23:42;;;;;;;10.88;6.45;;;6.80;93.70;;;;;;5128758;28;20106;-45
2022/04/29 04:26:07;;;;;;;13.20;7.22;;;6.80;93.90;;;;;;5128847;28;20062;-40
2022/04/29 04:28:33;;;;;;;11.50;6.40;;;6.70;93.90;;;;;;5128721;28;20062;-53
2022/04/29 04:30:59;;;;;;;17.08;7.82;;;6.70;93.90;;;;;;5128272;28;20393;-44
2022/04/29 04:33:24;;;;;;;12.68;7.35;;;6.70;94.10;;;;;;5128420;28;20031;-50
2022/04/29 04:35:50;;;;;;;11.70;7.28;;;6.70;94.20;;;;;;5128371;28;20039;-51
2022/04/29 04:38:16;;;;;;;13.93;6.90;;;6.70;94.10;;;;;;5128525;28;20022;-43
2022/04/29 04:40:42;;;;;;;12.27;6.65;;;6.70;94.00;;;;;;5128503;27;20439;-38
2022/04/29 04:43:08;;;;;;;17.85;7.47;;;6.70;94.10;;;;;;5128502;27;20046;-56
2022/04/29 04:45:34;;;;;;;14.02;7.05;;;6.70;94.30;;;;;;5127968;28;20481;-51
2022/04/29 04:48:00;;;;;;;14.25;6.80;;;6.70;94.50;;;;;;5127948;28;20038;-54
2022/04/29 04:50:25;;;;;;;12.35;7.07;;;6.70;94.60;;;;;;5127992;28;20023;-45
2022/04/29 04:52:51;;;;;;;12.25;6.53;;;6.80;94.60;;;;;;5128147;28;20020;-45
2022/04/29 04:55:17;;;;;;;10.98;6.47;;;6.90;94.70;;;;;;5127838;28;20087;-50
2022/04/29 04:57:42;;;;;;;12.23;6.43;;;6.90;94.60;;;;;;5126743;28;20023;-53
2022/04/29 05:00:09;;;;;;;15.02;6.93;;;6.90;94.40;;;;;;5127994;28;20028;-58
2022/04/29 05:02:39;;;;;;;10.45;6.05;;;7.00;94.20;;;;;;5127942;27;20032;-39
2022/04/29 05:05:05;;;;;;;9.70;6.38;;;7.10;93.80;;;;;;5128068;27;20016;-44
2022/04/29 05:07:30;;;;;;;13.48;6.40;;;7.10;93.90;;;;;;5117483;27;20101;-43
2022/04/29 05:09:56;;;;;;;13.52;6.32;;;7.30;93.90;;;;;;5114373;28;20350;-54
2022/04/29 05:12:21;;;;;;;11.65;6.72;;;7.30;93.50;;;;;;5114123;28;20114;-46
2022/04/29 05:14:47;;;;;;;11.25;6.07;;;7.40;93.50;;;;;;5113875;28;20023;-42
2022/04/29 05:17:13;;;;;;;10.23;6.32;;;7.50;93.30;;;;;;5109627;28;20469;-40
2022/04/29 05:19:38;;;;;;;10.30;5.30;;;7.50;93.10;;;;;;5099250;28;20027;-51
2022/04/29 05:22:04;;;;;;;12.80;5.78;;;7.60;93.10;;;;;;5105809;28;20413;-58
2022/04/29 05:24:30;;;;;;;11.52;5.75;;;7.60;92.80;;;;;;5108650;28;20389;-52
2022/04/29 05:26:56;;;;;;;12.15;6.40;;;7.70;92.50;;;;;;5107008;28;20030;-53
2022/04/29 05:29:21;;;;;;;12.52;6.20;;;7.70;92.50;;;;;;5110730;28;20416;-48
2022/04/29 05:31:47;;;;;;;10.10;5.90;;;7.80;92.20;;;;;;5110270;28;20027;-53
2022/04/29 05:34:13;;;;;;;15.65;6.05;;;7.90;92.10;;;;;;5112423;28;20028;-54
2022/04/29 05:36:39;;;;;;;13.93;5.80;;;7.90;91.90;;;;;;5113637;28;20042;-57
2022/04/29 05:44:34;;;;;;;11.73;6.10;;;8.10;91.90;;;;;;5113838;28;20026;-54
2022/04/29 05:47:00;;;;;;;10.52;6.00;;;8.30;92.20;;;;;;5113679;28;20026;-51
2022/04/29 05:49:25;;;;;;;13.55;6.25;;;8.50;91.90;;;;;;5113458;28;20153;-54
2022/04/29 05:51:51;;;;;;;14.63;6.28;;;8.60;91.00;;;;;;5112898;28;20054;-54
2022/04/29 05:54:17;;;;;;;13.18;6.15;;;8.70;91.30;;;;;;5108827;28;20481;-54
2022/04/29 05:56:42;;;;;;;15.15;6.38;;;8.90;91.10;;;;;;5102259;28;20105;-60
2022/04/29 05:59:08;;;;;;;16.35;6.47;;;9.10;90.50;;;;;;5105101;28;20097;-50
2022/04/29 06:01:33;;;;;;;10.50;6.18;;;9.20;90.00;;;;;;5110317;28;20028;-54
2022/04/29 06:03:59;;;;;;;15.02;6.20;;;9.20;88.50;;;;;;5110367;28;20091;-58
2022/04/29 06:06:25;;;;;;;15.63;6.60;;;9.20;88.80;;;;;;5113231;28;20027;-57
2022/04/29 06:08:50;;;;;;;12.18;5.85;;;9.20;89.70;;;;;;5102304;28;20028;-60
2022/04/29 06:11:17;;;;;;;15.10;6.18;;;9.30;90.10;;;;;;5112707;28;20044;-49
2022/04/29 06:13:43;;;;;;;11.60;6.70;;;9.30;88.70;;;;;;5112021;28;20485;-46
2022/04/29 06:16:10;;;;;;;13.55;6.43;;;9.30;88.40;;;;;;5112086;28;20047;-50
2022/04/29 06:18:36;;;;;;;12.65;5.70;;;9.60;88.10;;;;;;5111347;28;20016;-40
2022/04/29 06:21:02;;;;;;;11.85;5.15;;;10.30;87.80;;;;;;5112354;28;20067;-38
2022/04/29 06:23:28;;;;;;;11.43;4.82;;;10.80;82.70;;;;;;5111355;28;20035;-38
2022/04/29 06:25:54;;;;;;;14.77;5.10;;;11.60;81.80;;;;;;5112568;28;20024;-46
2022/04/29 06:28:20;;;;;;;9.75;4.57;;;12.50;77.40;;;;;;5109917;28;20023;-57
2022/04/29 06:30:45;;;;;;;11.25;4.70;;;13.30;75.20;;;;;;5110661;28;20020;-53
2022/04/29 06:33:11;;;;;;;9.68;5.22;;;13.50;70.30;;;;;;5110427;28;20020;-48
2022/04/29 06:35:42;;;;;;;11.18;4.70;;;13.80;70.10;;;;;;5110238;28;20367;-50
2022/04/29 06:38:11;;;;;;;11.10;4.97;;;14.10;72.20;;;;;;5110488;28;20028;-44
2022/04/29 06:40:37;;;;;;;12.95;4.75;;;14.50;67.20;;;;;;5110586;28;20121;-60
2022/04/29 06:43:03;;;;;;;10.68;4.22;;;14.90;66.10;;;;;;5111407;28;20050;-58
2022/04/29 06:45:28;;;;;;;11.98;4.20;;;15.40;64.80;;;;;;5112267;28;20027;-57
2022/04/29 06:47:54;;;;;;;9.18;4.03;;;16.20;64.60;;;;;;5111223;28;20020;-59
2022/04/29 06:50:20;;;;;;;8.90;4.13;;;17.00;61.20;;;;;;5112317;28;20023;-60
2022/04/29 06:52:45;;;;;;;9.85;3.65;;;17.40;57.00;;;;;;5112114;28;20027;-51
2022/04/29 06:55:11;;;;;;;13.85;4.05;;;18.00;56.60;;;;;;5110884;28;20047;-49
2022/04/29 06:57:37;;;;;;;7.85;3.78;;;18.10;53.50;;;;;;5112084;28;20547;-55
2022/04/29 07:00:04;;;;;;;11.35;3.85;;;18.70;52.70;;;;;;5112029;28;20036;-54
2022/04/29 07:02:31;;;;;;;11.10;3.83;;;19.10;51.60;;;;;;5111839;28;20027;-45
2022/04/29 07:04:57;;;;;;;10.15;3.80;;;19.00;51.30;;;;;;5110867;28;20115;-50
2022/04/29 07:07:28;;;;;;;8.93;3.78;;;19.30;49.00;;;;;;5112027;28;20510;-55
2022/04/29 07:09:54;;;;;;;9.98;4.15;;;19.30;47.80;;;;;;5111950;28;20008;-53
2022/04/29 07:12:20;;;;;;;7.68;3.65;;;19.50;50.30;;;;;;5111989;28;20381;-45
2022/04/29 07:14:46;;;;;;;9.02;3.75;;;19.20;46.70;;;;;;5112040;28;20031;-61
2022/04/29 07:17:11;;;;;;;11.60;3.67;;;18.90;47.30;;;;;;5111961;28;20035;-59
2022/04/29 07:19:37;;;;;;;10.93;3.70;;;19.00;49.80;;;;;;5111688;28;20027;-57
2022/04/29 07:22:04;;;;;;;11.40;3.60;;;20.20;47.40;;;;;;5111724;28;20062;-58
2022/04/29 07:24:30;;;;;;;7.78;3.03;;;20.40;46.60;;;;;;5111907;28;20024;-54
2022/04/29 07:26:57;;;;;;;11.75;3.13;;;20.00;47.00;;;;;;5111752;28;20027;-55
2022/04/29 07:29:23;;;;;;;8.18;3.20;;;21.10;46.20;;;;;;5111487;28;20032;-41
2022/04/29 07:31:48;;;;;;;6.40;3.15;;;22.40;43.60;;;;;;5111853;28;20603;-39
2022/04/29 07:34:14;;;;;;;9.60;2.90;;;22.60;40.20;;;;;;5111797;28;20032;-41
2022/04/29 07:42:08;;;;;;;7.57;2.60;;;20.80;43.60;;;;;;5112021;28;20088;-48
2022/04/29 07:44:34;;;;;;;5.55;2.25;;;21.20;40.80;;;;;;5111287;28;20028;-50
2022/04/29 07:47:00;;;;;;;6.97;2.50;;;21.80;40.80;;;;;;5111686;28;20027;-57
2022/04/29 07:49:26;;;;;;;6.75;2.45;;;22.30;42.70;;;;;;5111829;28;20477;-51
2022/04/29 07:51:51;;;;;;;7.30;2.20;;;22.90;38.60;;;;;;5110398;28;20359;-46
2022/04/29 07:54:17;;;;;;;6.03;2.03;;;24.00;37.40;;;;;;5111596;28;20061;-61
2022/04/29 07:56:43;;;;;;;6.88;2.17;;;24.60;37.30;;;;;;5111396;28;20051;-52
2022/04/29 07:59:09;;;;;;;8.13;2.60;;;24.50;33.70;;;;;;5111610;28;20034;-51
2022/04/29 08:01:38;;;;;;;6.07;1.80;;;24.50;36.50;;;;;;5111520;28;20036;-49
2022/04/29 08:04:04;;;;;;;5.30;1.98;;;23.90;36.40;;;;;;5111626;28;20030;-51
2022/04/29 08:06:31;;;;;;;6.72;2.30;;;24.10;34.50;;;;;;5111455;28;20382;-45
2022/04/29 08:08:56;;;;;;;7.53;2.38;;;24.40;35.20;;;;;;5111390;28;20035;-47
2022/04/29 08:11:22;;;;;;;6.32;2.20;;;24.00;31.10;;;;;;5111335;28;20050;-55
2022/04/29 08:13:48;;;;;;;5.93;2.20;;;23.20;35.30;;;;;;5111315;28;20110;-51
2022/04/29 08:16:15;;;;;;;5.07;2.15;;;22.20;32.60;;;;;;5110401;28;20028;-51
2022/04/29 08:18:41;;;;;;;4.68;1.92;;;21.80;37.10;;;;;;5110531;28;20019;-48
2022/04/29 08:21:07;;;;;;;5.50;2.25;;;21.50;38.90;;;;;;5111579;28;20389;-57
2022/04/29 08:23:33;;;;;;;4.80;1.85;;;20.80;38.50;;;;;;5111224;28;20390;-52
2022/04/29 08:25:58;;;;;;;6.88;2.08;;;21.10;39.50;;;;;;5111249;28;20035;-47
2022/04/29 08:28:26;;;;;;;6.75;2.28;;;21.60;36.80;;;;;;5111215;28;20016;-51
2022/04/29 08:30:52;;;;;;;8.52;2.15;;;22.30;37.80;;;;;;5111103;28;20035;-53
2022/04/29 08:33:18;;;;;;;6.63;2.05;;;22.30;33.10;;;;;;5111173;28;20020;-54
2022/04/29 08:35:44;;;;;;;6.10;1.92;;;22.60;35.40;;;;;;5110987;28;20039;-58
2022/04/29 08:38:11;;;;;;;7.20;1.95;;;23.10;34.60;;;;;;5109524;28;20019;-45
2022/04/29 08:40:44;;;;;;;5.00;1.60;;;23.20;33.40;;;;;;5109909;28;20023;-53
2022/04/29 08:43:12;;;;;;;4.80;1.83;;;24.70;32.70;;;;;;5114255;28;20019;-56
2022/04/29 08:45:38;;;;;;;5.07;1.85;;;25.30;32.10;;;;;;5115125;28;20028;-56
2022/04/29 08:48:04;;;;;;;5.38;2.08;;;25.70;31.10;;;;;;5115046;28;20020;-51
2022/04/29 08:50:33;;;;;;;5.47;1.60;;;26.30;30.70;;;;;;5114140;28;20402;-55
2022/04/29 08:52:59;;;;;;;5.60;1.73;;;26.50;32.50;;;;;;5113679;28;20094;-58
2022/04/29 09:01:08;;;;;;;8.07;1.63;;;26.00;28.20;;;;;;5114956;28;20436;-57
2022/04/29 09:03:34;;;;;;;3.78;1.60;;;26.20;30.20;;;;;;5114532;28;20031;-57
2022/04/29 09:06:00;;;;;;;5.63;1.77;;;25.50;26.20;;;;;;5113452;28;20023;-59
2022/04/29 09:08:27;;;;;;;6.10;2.10;;;24.30;28.00;;;;;;5112215;28;20111;-52
2022/04/29 09:10:54;;;;;;;7.50;2.05;;;24.00;28.70;;;;;;5112399;28;20028;-51
2022/04/29 09:13:28;;;;;;;4.32;1.70;;;24.30;31.60;;;;;;5111142;28;20032;-58
2022/04/29 09:15:57;;;;;;;3.55;1.60;;;24.80;29.90;;;;;;5112096;28;20046;-50
2022/04/29 09:18:35;;;;;;;5.47;1.65;;;24.10;30.20;;;;;;5113566;28;20026;-54
2022/04/29 09:21:17;;;;;;;5.32;1.90;;;24.50;29.60;;;;;;5114399;28;20046;-47
2022/04/29 09:23:49;;;;;;;4.35;1.52;;;24.40;29.10;;;;;;5114494;28;20024;-44
2022/04/29 09:26:38;;;;;;;5.00;1.80;;;24.80;30.00;;;;;;5114273;28;20031;-48
2022/04/29 09:29:15;;;;;;;4.18;1.85;;;24.70;31.90;;;;;;5093130;28;20035;-50
2022/04/29 09:31:56;;;;;;;5.78;2.00;;;25.30;30.10;;;;;;5093859;28;20035;-48
2022/04/29 09:34:23;;;;;;;4.13;1.70;;;25.40;27.70;;;;;;5093585;28;20028;-50
2022/04/29 09:36:50;;;;;;;9.90;2.05;;;25.10;30.90;;;;;;5093515;28;20047;-46
2022/04/29 09:39:30;;;;;;;4.65;1.50;;;25.50;29.90;;;;;;5093863;28;20020;-50
2022/04/29 09:42:01;;;;;;;5.40;1.80;;;25.40;29.70;;;;;;5093557;28;20028;-49
2022/04/29 09:44:35;;;;;;;6.55;2.03;;;25.50;28.30;;;;;;5093476;28;20020;-52
2022/04/29 09:47:14;;;;;;;4.43;2.10;;;24.90;28.60;;;;;;5093358;28;20155;-50
2022/04/29 09:49:41;;;;;;;;;;;25.30;30.70;;;;;;5101422;28;20032;-55
2022/04/29 09:52:07;;;;;;;5.35;1.90;;;25.60;29.70;;;;;;5112807;28;19922;-48
2022/04/29 09:54:38;;;;;;;3.92;1.70;;;25.60;28.50;;;;;;5113443;28;20024;-56
2022/04/29 09:57:08;;;;;;;3.88;2.00;;;25.00;28.20;;;;;;5110158;28;20051;-53
2022/04/29 09:59:44;;;;;;;5.88;2.00;;;23.60;30.80;;;;;;5092404;28;20020;-50
2022/04/29 10:02:37;;;;;;;6.85;2.10;;;23.80;33.60;;;;;;5092742;28;20040;-52
2022/04/29 10:05:04;;;;;;;6.43;2.00;;;23.20;29.60;;;;;;5089680;28;20036;-55
2022/04/29 10:07:33;;;;;;;4.47;1.73;;;22.50;34.30;;;;;;5095897;28;20020;-39
2022/04/29 10:09:59;;;;;;;6.07;2.03;;;22.40;35.80;;;;;;5113286;28;20055;-49
2022/04/29 10:12:27;;;;;;;4.50;2.25;;;23.10;37.20;;;;;;5113247;28;20551;-54
2022/04/29 10:14:57;;;;;;;6.13;2.07;;;22.80;31.40;;;;;;5112942;28;20035;-48
2022/04/29 10:23:10;;;;;;;7.88;2.17;;;21.80;31.20;;;;;;5113284;28;20031;-49
2022/04/29 10:25:40;;;;;;;4.88;1.90;;;22.80;33.00;;;;;;5111724;28;20031;-47
2022/04/29 10:28:07;;;;;;;4.18;2.10;;;23.30;31.70;;;;;;5113084;28;20019;-58
2022/04/29 10:30:35;;;;;;;8.82;2.00;;;23.50;30.30;;;;;;5112843;27;20034;-55
2022/04/29 10:33:11;;;;;;;8.15;2.30;;;24.30;31.90;;;;;;5112765;28;20416;-58
2022/04/29 10:35:40;;;;;;;5.65;2.22;;;24.70;30.40;;;;;;5112564;28;20046;-59
2022/04/29 10:38:26;;;;;;;4.85;2.22;;;24.60;31.80;;;;;;5111640;28;20100;-54
2022/04/29 10:41:08;;;;;;;4.35;2.08;;;24.60;31.30;;;;;;5112180;28;20392;-45
2022/04/29 10:43:38;;;;;;;7.75;2.58;;;24.60;30.60;;;;;;5112000;28;20076;-51
2022/04/29 10:46:03;;;;;;;8.88;2.25;;;23.90;29.20;;;;;;5112175;28;20026;-55
2022/04/29 10:48:34;;;;;;;9.73;2.65;;;23.20;33.80;;;;;;5112678;28;20019;-54
2022/04/29 10:51:16;;;;;;;6.22;2.38;;;23.00;32.90;;;;;;5106871;28;20084;-58
2022/04/29 10:53:43;;;;;;;6.20;2.28;;;23.30;32.70;;;;;;5112223;28;20032;-49
2022/04/29 10:56:32;;;;;;;6.80;2.25;;;23.80;30.40;;;;;;5110873;28;20470;-57
2022/04/29 10:59:03;;;;;;;8.10;2.92;;;23.90;30.60;;;;;;5103910;28;20058;-51
2022/04/29 11:01:33;;;;;;;6.80;2.60;;;23.50;29.70;;;;;;5112181;28;20177;-60
2022/04/29 11:03:59;;;;;;;6.55;2.60;;;23.60;31.50;;;;;;5111912;28;20420;-59
2022/04/29 11:06:46;;;;;;;15.05;2.70;;;22.60;32.30;;;;;;5112067;28;20106;-55
2022/04/29 11:09:35;;;;;;;6.45;2.50;;;22.90;34.20;;;;;;5112414;28;20053;-53
2022/04/29 11:12:02;;;;;;;7.60;2.55;;;23.30;31.40;;;;;;5112212;28;20012;-57
2022/04/29 11:14:28;;;;;;;7.70;2.40;;;23.80;32.60;;;;;;5112024;27;20040;-42
2022/04/29 11:16:57;;;;;;;10.60;2.42;;;23.30;30.30;;;;;;5112037;28;20035;-59
2022/04/29 11:19:28;;;;;;;4.57;2.22;;;23.20;31.20;;;;;;5112052;27;20103;-48
2022/04/29 11:24:49;;;;;;;5.20;2.20;;;23.70;29.70;;;;;;5112056;28;20431;-45
2022/04/29 11:27:27;;;;;;;8.07;2.10;;;23.10;32.50;;;;;;5110631;28;20430;-39
2022/04/29 11:29:56;;;;;;;5.10;2.03;;;22.80;30.60;;;;;;5112014;28;20034;-41
2022/04/29 11:32:26;;;;;;;5.30;2.50;;;22.50;33.00;;;;;;5111869;28;20446;-42
2022/04/29 11:34:52;;;;;;;;;;;22.40;32.50;;;;;;5110826;28;20030;-56
2022/04/29 11:37:25;;;;;;;7.70;2.67;;;21.90;32.00;;;;;;5111317;28;19915;-49
2022/04/29 11:39:52;;;;;;;3.33;2.00;;;21.90;33.10;;;;;;5111133;28;20035;-49
2022/04/29 11:42:19;;;;;;;4.88;2.00;;;22.20;34.00;;;;;;5110877;28;20024;-57
2022/04/29 11:44:49;;;;;;;5.30;2.20;;;21.70;32.60;;;;;;5105560;28;20023;-52
2022/04/29 11:47:25;;;;;;;6.00;2.50;;;21.40;31.90;;;;;;5110955;28;20022;-54
2022/04/29 11:49:52;;;;;;;5.57;2.45;;;20.30;34.10;;;;;;5111002;28;20080;-57
2022/04/29 11:52:25;;;;;;;9.90;2.55;;;20.30;35.20;;;;;;5110957;28;20028;-54
2022/04/29 11:54:53;;;;;;;6.45;2.47;;;19.80;36.30;;;;;;5111163;28;20438;-42
2022/04/29 11:57:21;;;;;;;4.93;3.30;;;19.60;35.30;;;;;;5111419;28;20038;-44
2022/04/29 11:59:47;;;;;;;7.00;2.55;;;19.10;35.40;;;;;;5111435;28;20027;-42
2022/04/29 12:02:17;;;;;;;6.53;2.88;;;19.00;37.30;;;;;;5110938;28;20015;-39
2022/04/29 12:05:02;;;;;;;5.45;2.30;;;19.30;40.20;;;;;;5111320;28;20035;-55
2022/04/29 12:07:29;;;;;;;10.75;2.72;;;19.70;36.20;;;;;;5111380;28;20092;-52
2022/04/29 12:09:56;;;;;;;5.63;2.30;;;19.60;38.50;;;;;;5111142;28;20478;-57
2022/04/29 12:12:29;;;;;;;10.82;2.70;;;20.00;38.80;;;;;;5111330;28;20024;-54
2022/04/29 12:14:56;;;;;;;4.38;2.63;;;20.40;37.90;;;;;;5111309;28;20080;-59
2022/04/29 12:17:36;;;;;;;5.15;2.28;;;20.50;34.50;;;;;;5113308;28;20110;-59
2022/04/29 12:20:02;;;;;;;;;;;20.60;34.70;;;;;;5116107;28;20023;-55
2022/04/29 12:22:33;;;;;;;5.18;2.60;;;20.40;37.10;;;;;;5115230;28;20354;-50
2022/04/29 12:25:22;;;;;;;7.38;2.90;;;20.30;33.10;;;;;;5115110;28;20366;-55
2022/04/29 12:28:26;;;;;;;6.93;3.10;;;20.30;38.00;;;;;;5115166;27;20026;-54
2022/04/29 12:36:45;;;;;;;5.85;2.53;;;20.50;33.60;;;;;;5112321;28;20050;-52
2022/04/29 12:39:11;;;;;;;5.70;2.50;;;20.20;35.10;;;;;;5114601;28;20015;-49
2022/04/29 12:41:36;;;;;;;6.00;2.72;;;20.50;36.00;;;;;;5115105;28;20036;-52
2022/04/29 12:46:59;;;;;;;4.95;2.67;;;20.30;35.00;;;;;;5114792;28;20416;-52
2022/04/29 12:49:24;;;;;;;6.40;2.72;;;20.10;35.30;;;;;;5115015;28;20035;-60
2022/04/29 12:52:00;;;;;;;8.25;3.10;;;20.40;37.00;;;;;;5114785;28;20022;-61
2022/04/29 12:54:27;;;;;;;5.32;2.65;;;19.90;34.50;;;;;;5114697;28;20545;-51
2022/04/29 12:56:53;;;;;;;6.20;2.78;;;19.70;38.40;;;;;;5114490;28;20417;-59
2022/04/29 12:59:24;;;;;;;7.00;2.80;;;19.00;36.20;;;;;;5113260;28;20023;-53
2022/04/29 13:01:50;;;;;;;5.78;3.20;;;18.50;39.00;;;;;;5114562;28;20023;-42
2022/04/29 13:04:16;;;;;;;5.18;3.05;;;17.90;38.40;;;;;;5114739;28;20032;-57
2022/04/29 13:06:42;;;;;;;6.15;3.40;;;17.90;40.20;;;;;;5114580;28;20027;-56
2022/04/29 13:09:07;;;;;;;5.65;3.15;;;18.10;42.80;;;;;;5114514;28;20049;-55
2022/04/29 13:11:33;;;;;;;9.25;3.60;;;18.50;41.60;;;;;;5114234;28;20030;-54
2022/04/29 13:13:59;;;;;;;7.55;2.90;;;18.20;38.30;;;;;;5114243;28;20028;-58
2022/04/29 13:16:25;;;;;;;6.75;3.28;;;18.10;40.80;;;;;;5110954;28;20044;-50
2022/04/29 13:18:53;;;;;;;7.13;3.80;;;17.50;39.80;;;;;;5114299;28;20019;-54
2022/04/29 13:21:19;;;;;;;8.55;3.35;;;17.00;40.50;;;;;;5111699;28;20541;-56
2022/04/29 13:23:46;;;;;;;6.07;3.10;;;16.90;43.90;;;;;;5113369;28;20106;-56
2022/04/29 13:26:13;;;;;;;6.80;3.53;;;17.20;44.00;;;;;;5113546;28;20019;-46
2022/04/29 13:28:40;;;;;;;7.32;3.20;;;17.40;42.20;;;;;;5112772;28;20366;-49
2022/04/29 13:31:07;;;;;;;5.43;3.78;;;17.20;41.80;;;;;;5113327;28;20046;-39
2022/04/29 13:33:33;;;;;;;7.50;4.03;;;17.10;44.20;;;;;;5112815;28;20032;-57